Time,TemperatureF,DewpointF,PressureIn,WindDirection,WindDirectionDegrees,WindSpeedMPH,WindSpeedGustMPH,Humidity,HourlyPrecipIn,Conditions,Clouds,dailyrainin,SoftwareType,DateUTC
2013-09-02 09:11:00,57.0,49.0,29.80,NNW,337,7.0,14.0,75,0.00,,,0.00,,2013-09-02 14:11:00,
2013-09-02 09:22:00,57.0,50.0,29.80,NNW,330,8.0,16.0,76,0.00,,,0.00,,2013-09-02 14:22:00,
2013-09-02 09:52:00,57.0,49.0,29.81,NNW,330,8.0,17.0,75,0.00,,,0.00,,2013-09-02 14:52:00,
2013-09-02 10:02:00,57.0,49.0,29.81,NNW,330,8.0,17.0,75,0.00,,,0.00,,2013-09-02 15:02:00,
2013-09-02 10:12:00,57.0,49.0,29.81,NNW,330,8.0,17.0,75,0.00,,,0.00,,2013-09-02 15:12:00,
2013-09-02 10:55:00,57.0,49.0,29.82,NNW,332,8.0,17.0,74,0.00,,,0.00,,2013-09-02 15:55:00,
2013-09-02 11:24:00,57.0,48.0,29.83,NW,326,9.0,18.0,73,0.00,,,0.00,,2013-09-02 16:24:00,
2013-09-02 11:53:00,58.0,49.0,29.83,NW,326,9.0,18.0,71,0.00,,,0.00,,2013-09-02 16:53:00,
2013-09-02 12:03:00,58.0,49.0,29.83,NW,326,9.0,18.0,71,0.00,,,0.00,,2013-09-02 17:03:00,
2013-09-02 12:23:00,59.0,48.0,29.83,NW,323,10.0,19.0,68,0.00,,,0.00,,2013-09-02 17:23:00,
2013-09-02 12:34:00,59.0,48.0,29.83,NW,323,10.0,19.0,68,0.00,,,0.00,,2013-09-02 17:34:00,
2013-09-02 12:52:00,59.0,48.0,29.83,NW,323,10.0,19.0,68,0.00,,,0.00,,2013-09-02 17:52:00,
2013-09-02 13:13:00,60.0,49.0,29.84,NW,324,8.0,17.0,68,0.00,,,0.00,,2013-09-02 18:13:00,
2013-09-02 13:22:00,60.0,49.0,29.84,NW,321,8.0,18.0,68,0.00,,,0.00,,2013-09-02 18:22:00,
2013-09-02 13:52:00,61.0,50.0,29.83,NW,321,7.0,15.0,66,0.00,,,0.00,,2013-09-02 18:52:00,
2013-09-02 14:02:00,61.0,50.0,29.83,NW,321,7.0,15.0,66,0.00,,,0.00,,2013-09-02 19:02:00,
2013-09-02 14:12:00,61.0,50.0,29.83,NW,321,7.0,15.0,66,0.00,,,0.00,,2013-09-02 19:12:00,
2013-09-02 14:22:00,61.0,50.0,29.83,NW,305,6.0,16.0,66,0.00,,,0.00,,2013-09-02 19:22:00,
2013-09-02 14:52:00,62.0,50.0,29.82,NW,320,9.0,18.0,65,0.00,,,0.00,,2013-09-02 19:52:00,
2013-09-02 15:02:00,62.0,50.0,29.82,NW,320,9.0,18.0,65,0.00,,,0.00,,2013-09-02 20:02:00,
2013-09-02 15:22:00,63.0,51.0,29.82,NW,315,8.0,17.0,65,0.00,,,0.00,,2013-09-02 20:22:00,
2013-09-02 15:33:00,63.0,51.0,29.82,NW,315,8.0,17.0,65,0.00,,,0.00,,2013-09-02 20:33:00,
2013-09-02 15:52:00,63.0,51.0,29.82,NW,316,7.0,16.0,66,0.00,,,0.00,,2013-09-02 20:52:00,
2013-09-02 16:12:00,63.0,51.0,29.82,NW,322,7.0,14.0,64,0.00,,,0.00,,2013-09-02 21:12:00,
2013-09-02 16:23:00,63.0,51.0,29.82,NW,322,7.0,14.0,64,0.00,,,0.00,,2013-09-02 21:23:00,
2013-09-02 16:55:00,64.0,52.0,29.82,NNW,333,7.0,17.0,64,0.00,,,0.00,,2013-09-02 21:55:00,
2013-09-02 17:24:00,64.0,52.0,29.82,North,350,4.0,12.0,64,0.00,,,0.00,,2013-09-02 22:24:00,
2013-09-02 17:54:00,63.0,51.0,29.82,North,10,3.0,9.0,66,0.00,,,0.00,,2013-09-02 22:54:00,
2013-09-02 18:12:00,63.0,51.0,29.83,NNW,335,5.0,12.0,64,0.00,,,0.00,,2013-09-02 23:12:00,
2013-09-02 18:22:00,63.0,51.0,29.83,NNW,335,5.0,12.0,64,0.00,,,0.00,,2013-09-02 23:22:00,
2013-09-02 18:53:00,63.0,51.0,29.83,NNW,341,5.0,13.0,64,0.00,,,0.00,,2013-09-02 23:53:00,
2013-09-02 19:01:00,63.0,51.0,29.83,NNW,341,5.0,13.0,64,0.00,,,0.00,,2013-09-03 00:01:00,
2013-09-02 19:12:00,63.0,51.0,29.83,NNW,341,5.0,13.0,64,0.00,,,0.00,,2013-09-03 00:12:00,
2013-09-02 19:21:00,63.0,51.0,29.83,NNW,341,5.0,13.0,64,0.00,,,0.00,,2013-09-03 00:21:00,
2013-09-02 19:42:00,62.0,50.0,29.83,NNW,333,5.0,11.0,64,0.00,,,0.00,,2013-09-03 00:42:00,
2013-09-02 19:52:00,62.0,50.0,29.83,NNW,333,4.0,10.0,64,0.00,,,0.00,,2013-09-03 00:52:00,
2013-09-02 20:11:00,62.0,50.0,29.83,NNW,339,3.0,10.0,64,0.00,,,0.00,,2013-09-03 01:11:00,
2013-09-02 20:21:00,62.0,50.0,29.83,North,352,2.0,7.0,64,0.00,,,0.00,,2013-09-03 01:21:00,
2013-09-02 20:42:00,62.0,50.0,29.83,NNW,344,2.0,7.0,65,0.00,,,0.00,,2013-09-03 01:42:00,
2013-09-02 20:52:00,62.0,50.0,29.84,NNW,334,5.0,13.0,65,0.00,,,0.00,,2013-09-03 01:52:00,
2013-09-02 21:12:00,62.0,50.0,29.84,NNW,332,5.0,12.0,65,0.00,,,0.00,,2013-09-03 02:12:00,
2013-09-02 21:21:00,62.0,50.0,29.84,NNW,332,5.0,12.0,65,0.00,,,0.00,,2013-09-03 02:21:00,
2013-09-02 21:33:00,62.0,50.0,29.84,NNW,332,5.0,12.0,65,0.00,,,0.00,,2013-09-03 02:33:00,